Time;durP1;ratioP1;P1;durP2;ratioP2;P2;SDS_P1;SDS_P2;PMS_P1;PMS_P2;Temp;Humidity;BMP_temperature;BMP_pressure;BME280_temperature;BME280_humidity;BME280_pressure;Samples;Min_cycle;Max_cycle;Signal;HPM_P1;HPM_P2
2022/02/01 00:01:09;;;;;;;19.00;8.40;;;;;;;;;;5113293;27;20442;-74
2022/02/01 00:03:38;;;;;;;15.73;7.93;;;;;;;;;;5112665;27;20516;-74
2022/02/01 00:06:12;;;;;;;16.23;7.87;;;;;;;;;;5113355;27;20457;-74
2022/02/01 00:08:46;;;;;;;23.30;8.77;;;;;;;;;;5113088;27;20459;-74
2022/02/01 00:11:27;;;;;;;19.73;9.10;;;;;;;;;;5112923;27;20439;-74
2022/02/01 00:14:08;;;;;;;20.60;8.10;;;;;;;;;;5112826;27;20473;-76
2022/02/01 00:16:59;;;;;;;14.30;8.50;;;;;;;;;;5112695;27;20541;-75
2022/02/01 00:33:47;;;;;;;17.20;9.40;;;;;;;;;;5112358;27;20430;-74
2022/02/01 00:36:26;;;;;;;21.87;9.10;;;;;;;;;;5100442;27;20462;-74
2022/02/01 00:38:58;;;;;;;19.73;9.97;;;;;;;;;;5098464;27;20939;-74
2022/02/01 00:41:29;;;;;;;16.70;8.83;;;;;;;;;;5098167;27;20467;-74
2022/02/01 00:43:56;;;;;;;19.20;9.60;;;;;;;;;;5098273;27;20594;-74
2022/02/01 00:46:24;;;;;;;16.93;8.93;;;;;;;;;;5098610;27;20447;-74
2022/02/01 00:48:51;;;;;;;14.70;8.60;;;;;;;;;;5098336;27;20884;-74
2022/02/01 00:51:18;;;;;;;20.57;7.90;;;;;;;;;;5098530;27;20638;-74
2022/02/01 00:53:45;;;;;;;16.33;9.00;;;;;;;;;;5100477;27;20825;-74
2022/02/01 00:56:14;;;;;;;11.73;7.37;;;;;;;;;;5098733;27;20550;-74
2022/02/01 00:58:41;;;;;;;22.63;9.57;;;;;;;;;;5096607;28;20455;-74
2022/02/01 01:01:08;;;;;;;16.33;8.37;;;;;;;;;;5098012;28;20824;-74
2022/02/01 01:03:36;;;;;;;20.20;9.60;;;;;;;;;;5097660;28;20510;-74
2022/02/01 01:06:03;;;;;;;20.80;8.00;;;;;;;;;;5097692;28;20711;-75
2022/02/01 01:08:30;;;;;;;17.00;8.43;;;;;;;;;;5096919;28;20715;-74
2022/02/01 01:10:58;;;;;;;14.83;8.10;;;;;;;;;;5096935;28;20483;-74
2022/02/01 01:16:18;;;;;;;24.77;11.10;;;;;;;;;;5074174;28;20436;-74
2022/02/01 01:19:11;;;;;;;21.43;10.73;;;;;;;;;;5097628;28;20490;-74
2022/02/01 01:43:45;;;;;;;17.00;8.40;;;;;;;;;;5096229;28;20972;-74
2022/02/01 01:54:30;;;;;;;11.73;6.07;;;;;;;;;;5097060;28;20493;-73
2022/02/01 01:56:57;;;;;;;15.90;7.30;;;;;;;;;;5097320;28;20516;-73
2022/02/01 01:59:25;;;;;;;13.60;5.70;;;;;;;;;;5097331;28;20706;-74
2022/02/01 02:01:55;;;;;;;16.80;5.90;;;;;;;;;;5097253;28;20479;-73
2022/02/01 02:04:22;;;;;;;13.83;6.73;;;;;;;;;;5097544;28;20556;-73
2022/02/01 02:06:50;;;;;;;12.63;6.83;;;;;;;;;;5097160;28;20451;-73
2022/02/01 02:09:17;;;;;;;13.30;5.67;;;;;;;;;;5095534;28;20459;-73
2022/02/01 02:11:50;;;;;;;12.90;5.10;;;;;;;;;;5096582;28;20574;-74
2022/02/01 02:14:18;;;;;;;14.53;6.03;;;;;;;;;;5097409;28;20844;-74
2022/02/01 02:16:46;;;;;;;12.93;5.37;;;;;;;;;;5096713;28;20462;-73
2022/02/01 02:19:13;;;;;;;10.10;5.93;;;;;;;;;;5096911;28;20451;-73
2022/02/01 02:21:41;;;;;;;11.70;4.87;;;;;;;;;;5096415;28;20455;-74
2022/02/01 02:24:08;;;;;;;9.93;4.70;;;;;;;;;;5097588;28;20683;-74
2022/02/01 02:26:38;;;;;;;10.07;4.07;;;;;;;;;;5097118;28;20450;-73
2022/02/01 02:29:05;;;;;;;11.40;4.50;;;;;;;;;;5096542;28;20448;-74
2022/02/01 02:31:37;;;;;;;7.60;4.20;;;;;;;;;;5096992;28;20501;-74
2022/02/01 02:34:07;;;;;;;15.83;4.40;;;;;;;;;;5097060;28;20735;-74
2022/02/01 02:36:36;;;;;;;10.53;3.90;;;;;;;;;;5096668;28;20498;-73
2022/02/01 02:39:10;;;;;;;6.97;3.70;;;;;;;;;;5096553;28;20534;-74
2022/02/01 02:41:48;;;;;;;7.60;4.20;;;;;;;;;;5097028;28;20451;-73
2022/02/01 02:47:00;;;;;;;13.07;3.80;;;;;;;;;;5097056;28;20474;-73
2022/02/01 02:49:27;;;;;;;6.00;3.30;;;;;;;;;;5096316;28;20524;-74
2022/02/01 02:51:56;;;;;;;6.27;3.10;;;;;;;;;;5095938;28;20448;-74
2022/02/01 02:54:30;;;;;;;10.90;4.10;;;;;;;;;;5096083;28;20550;-74
2022/02/01 02:56:59;;;;;;;9.30;3.97;;;;;;;;;;5097778;27;20785;-74
2022/02/01 02:59:26;;;;;;;9.27;3.00;;;;;;;;;;5096881;27;20459;-74
2022/02/01 03:01:54;;;;;;;6.80;3.07;;;;;;;;;;5097057;27;20447;-73
2022/02/01 03:04:28;;;;;;;8.90;3.07;;;;;;;;;;5097620;27;20502;-74
2022/02/01 03:06:56;;;;;;;6.13;2.60;;;;;;;;;;5096641;27;20603;-74
2022/02/01 03:09:24;;;;;;;8.37;3.60;;;;;;;;;;5096952;27;20464;-74
2022/02/01 03:11:56;;;;;;;3.87;2.00;;;;;;;;;;5076793;28;20537;-74
2022/02/01 03:14:26;;;;;;;14.50;3.40;;;;;;;;;;5096617;27;20523;-73
2022/02/01 03:17:06;;;;;;;5.37;3.00;;;;;;;;;;5097072;27;20447;-74
2022/02/01 03:19:49;;;;;;;11.27;3.57;;;;;;;;;;5096285;28;20453;-74
2022/02/01 03:22:20;;;;;;;8.10;3.03;;;;;;;;;;5096971;28;20496;-75
2022/02/01 03:24:47;;;;;;;10.07;4.40;;;;;;;;;;5096242;28;20483;-74
2022/02/01 03:27:15;;;;;;;11.73;3.40;;;;;;;;;;5076754;28;20456;-74
2022/02/01 03:29:43;;;;;;;10.17;2.90;;;;;;;;;;5084711;28;20462;-74
2022/02/01 03:32:10;;;;;;;13.57;2.77;;;;;;;;;;5096871;27;20789;-74
2022/02/01 03:34:37;;;;;;;20.27;3.73;;;;;;;;;;5097250;27;20435;-73
2022/02/01 03:37:04;;;;;;;9.07;2.70;;;;;;;;;;5097604;27;20464;-73
2022/02/01 03:39:31;;;;;;;10.80;2.33;;;;;;;;;;5097670;27;20970;-73
2022/02/01 03:41:58;;;;;;;9.53;2.63;;;;;;;;;;5085696;28;20444;-73
2022/02/01 03:44:26;;;;;;;8.73;3.60;;;;;;;;;;5096758;28;20490;-74
2022/02/01 03:47:01;;;;;;;6.90;2.50;;;;;;;;;;5096753;28;20554;-74
2022/02/01 03:49:29;;;;;;;8.30;3.10;;;;;;;;;;5095636;28;20515;-72
2022/02/01 03:51:58;;;;;;;13.03;3.00;;;;;;;;;;5095664;28;20745;-74
2022/02/01 03:54:26;;;;;;;8.57;2.60;;;;;;;;;;5095407;28;20459;-73
2022/02/01 03:56:53;;;;;;;8.57;2.63;;;;;;;;;;5094635;28;20582;-74
2022/02/01 03:59:21;;;;;;;12.67;2.53;;;;;;;;;;5095802;28;20463;-74
2022/02/01 04:01:49;;;;;;;5.73;1.43;;;;;;;;;;5096721;28;20448;-73
2022/02/01 04:04:18;;;;;;;11.10;2.23;;;;;;;;;;5095815;28;20540;-74
2022/02/01 04:06:45;;;;;;;5.13;1.37;;;;;;;;;;5095650;28;20727;-73
2022/02/01 04:09:14;;;;;;;9.13;2.60;;;;;;;;;;5096100;28;20741;-73
2022/02/01 04:11:41;;;;;;;17.67;2.33;;;;;;;;;;5098954;28;20457;-73
2022/02/01 04:14:08;;;;;;;17.03;2.23;;;;;;;;;;5098740;28;20502;-73
2022/02/01 04:16:35;;;;;;;8.20;2.30;;;;;;;;;;5098916;28;20451;-73
2022/02/01 04:21:58;;;;;;;8.10;2.10;;;;;;;;;;5098688;28;20439;-74
2022/02/01 04:24:25;;;;;;;13.50;2.93;;;;;;;;;;5098793;28;20929;-74
2022/02/01 04:26:52;;;;;;;10.17;1.93;;;;;;;;;;5100323;28;20780;-73
2022/02/01 04:29:19;;;;;;;13.83;2.17;;;;;;;;;;5098674;28;20455;-74
2022/02/01 04:31:46;;;;;;;10.40;2.27;;;;;;;;;;5100202;28;21135;-73
2022/02/01 04:34:14;;;;;;;10.10;2.53;;;;;;;;;;5098573;28;20510;-74
2022/02/01 04:36:41;;;;;;;10.63;2.03;;;;;;;;;;5098906;28;20475;-76
2022/02/01 04:39:08;;;;;;;10.77;2.10;;;;;;;;;;5099246;28;20452;-73
2022/02/01 04:41:35;;;;;;;8.80;2.23;;;;;;;;;;5098406;28;20463;-74
2022/02/01 04:44:02;;;;;;;10.13;1.63;;;;;;;;;;5098682;28;20522;-73
2022/02/01 04:46:30;;;;;;;16.60;2.10;;;;;;;;;;5098197;28;20890;-74
2022/02/01 04:49:00;;;;;;;10.93;2.23;;;;;;;;;;5097438;28;20476;-74
2022/02/01 04:51:33;;;;;;;13.50;2.33;;;;;;;;;;5098392;28;20448;-74
2022/02/01 04:54:00;;;;;;;10.40;2.60;;;;;;;;;;5097464;28;20451;-74
2022/02/01 04:56:27;;;;;;;16.60;1.90;;;;;;;;;;5096523;28;20459;-74
2022/02/01 04:58:54;;;;;;;7.90;3.07;;;;;;;;;;5097881;28;20459;-74
2022/02/01 05:01:29;;;;;;;11.97;2.10;;;;;;;;;;5097222;28;20448;-74
2022/02/01 05:03:56;;;;;;;8.07;2.60;;;;;;;;;;5098190;28;20914;-74
2022/02/01 05:06:25;;;;;;;7.73;1.43;;;;;;;;;;5097784;28;20862;-73
2022/02/01 05:08:55;;;;;;;10.83;1.60;;;;;;;;;;5097728;28;20872;-73
2022/02/01 05:11:23;;;;;;;15.83;2.30;;;;;;;;;;5098123;28;20939;-73
2022/02/01 05:14:05;;;;;;;15.07;1.83;;;;;;;;;;5098156;28;20463;-73
2022/02/01 05:16:43;;;;;;;9.50;2.20;;;;;;;;;;5098339;27;20569;-73
2022/02/01 05:19:15;;;;;;;8.00;1.90;;;;;;;;;;5097460;28;20463;-73
2022/02/01 05:21:44;;;;;;;8.37;1.63;;;;;;;;;;5099014;27;20509;-73
2022/02/01 05:24:13;;;;;;;6.70;2.30;;;;;;;;;;5098518;27;20548;-73
2022/02/01 05:26:42;;;;;;;13.23;1.57;;;;;;;;;;5098659;27;20456;-73
2022/02/01 05:29:09;;;;;;;10.17;3.10;;;;;;;;;;5097348;27;20455;-73
2022/02/01 05:31:39;;;;;;;7.57;2.00;;;;;;;;;;5097240;28;20462;-73
2022/02/01 05:34:06;;;;;;;8.10;1.77;;;;;;;;;;5097483;28;20860;-73
2022/02/01 05:36:33;;;;;;;13.37;1.87;;;;;;;;;;5098547;27;20771;-74
2022/02/01 05:39:00;;;;;;;11.27;1.60;;;;;;;;;;5097403;28;20448;-74
2022/02/01 05:41:28;;;;;;;7.23;1.50;;;;;;;;;;5098920;27;20529;-73
2022/02/01 05:43:55;;;;;;;17.17;3.03;;;;;;;;;;5096861;27;20544;-74
2022/02/01 05:46:22;;;;;;;8.93;1.40;;;;;;;;;;5098014;27;20561;-75
2022/02/01 05:48:49;;;;;;;6.20;1.40;;;;;;;;;;5097481;27;20448;-73
2022/02/01 05:51:16;;;;;;;7.33;1.80;;;;;;;;;;5097957;27;20555;-73
2022/02/01 05:53:43;;;;;;;6.87;1.47;;;;;;;;;;5097123;28;20953;-74
2022/02/01 05:56:10;;;;;;;8.57;2.20;;;;;;;;;;5096842;27;20444;-73
2022/02/01 05:58:38;;;;;;;5.83;1.60;;;;;;;;;;5097898;28;20474;-73
2022/02/01 06:01:05;;;;;;;12.83;1.73;;;;;;;;;;5098343;28;20459;-73
2022/02/01 06:03:32;;;;;;;14.80;2.33;;;;;;;;;;5096863;28;20598;-73
2022/02/01 06:06:01;;;;;;;11.37;3.90;;;;;;;;;;5097631;28;20439;-73
2022/02/01 06:08:28;;;;;;;7.60;2.07;;;;;;;;;;5089946;27;20462;-73
2022/02/01 06:10:55;;;;;;;9.20;1.67;;;;;;;;;;5096565;28;20868;-74
2022/02/01 06:13:22;;;;;;;11.00;1.50;;;;;;;;;;5096573;28;20556;-74
2022/02/01 06:15:50;;;;;;;16.73;2.20;;;;;;;;;;5096965;28;20576;-74
2022/02/01 06:18:17;;;;;;;9.27;3.30;;;;;;;;;;5097122;28;20542;-74
2022/02/01 06:20:46;;;;;;;9.30;1.73;;;;;;;;;;5098074;28;20721;-74
2022/02/01 06:23:14;;;;;;;11.27;1.93;;;;;;;;;;5086689;28;20629;-74
2022/02/01 06:25:48;;;;;;;8.30;1.10;;;;;;;;;;5078883;27;20502;-73
2022/02/01 06:28:16;;;;;;;8.83;1.43;;;;;;;;;;5086762;28;20460;-74
2022/02/01 06:30:43;;;;;;;11.50;1.33;;;;;;;;;;5096252;27;20448;-75
2022/02/01 06:33:11;;;;;;;7.80;1.43;;;;;;;;;;5095825;27;20819;-73
2022/02/01 06:35:39;;;;;;;10.90;2.80;;;;;;;;;;5096669;27;20459;-74
2022/02/01 06:38:06;;;;;;;6.50;1.50;;;;;;;;;;5096616;27;20475;-74
2022/02/01 06:40:36;;;;;;;8.40;2.10;;;;;;;;;;5096176;27;20459;-73
2022/02/01 06:43:04;;;;;;;9.37;2.77;;;;;;;;;;5094214;27;20517;-73
2022/02/01 06:45:33;;;;;;;9.87;2.10;;;;;;;;;;5097866;27;20497;-73
2022/02/01 06:48:01;;;;;;;10.57;2.43;;;;;;;;;;5084860;27;20479;-74
2022/02/01 06:50:29;;;;;;;3.37;1.27;;;;;;;;;;5075225;28;20891;-74
2022/02/01 06:52:57;;;;;;;15.17;2.30;;;;;;;;;;5090228;27;20498;-74
2022/02/01 06:55:35;;;;;;;8.40;1.90;;;;;;;;;;5083866;27;20523;-74
2022/02/01 06:58:02;;;;;;;12.07;1.97;;;;;;;;;;5075548;28;20487;-74
2022/02/01 07:00:31;;;;;;;15.27;3.20;;;;;;;;;;5073761;28;20567;-74
2022/02/01 07:03:01;;;;;;;8.73;2.20;;;;;;;;;;5075465;28;20947;-74
2022/02/01 07:05:29;;;;;;;14.30;2.37;;;;;;;;;;5074115;28;20500;-74
2022/02/01 07:07:56;;;;;;;5.57;2.13;;;;;;;;;;5073810;28;20568;-74
2022/02/01 07:10:23;;;;;;;7.83;2.00;;;;;;;;;;5074063;28;20777;-74
2022/02/01 07:12:53;;;;;;;7.90;2.63;;;;;;;;;;5074680;28;20468;-74
2022/02/01 07:15:20;;;;;;;6.43;2.50;;;;;;;;;;5094381;27;20493;-73
2022/02/01 07:21:00;;;;;;;11.23;2.87;;;;;;;;;;5053802;28;20453;-75
2022/02/01 07:23:36;;;;;;;14.03;1.80;;;;;;;;;;5088749;27;20484;-75
2022/02/01 07:26:55;;;;;;;5.30;2.47;;;;;;;;;;5096823;27;20717;-74
2022/02/01 07:29:37;;;;;;;12.43;3.63;;;;;;;;;;5083801;28;20467;-74
2022/02/01 07:35:30;;;;;;;13.57;2.17;;;;;;;;;;5071318;28;20497;-73
2022/02/01 07:38:19;;;;;;;9.57;2.73;;;;;;;;;;5075574;28;20444;-74
2022/02/01 07:40:52;;;;;;;9.03;3.33;;;;;;;;;;5012552;28;20482;-73
2022/02/01 07:43:59;;;;;;;9.43;1.90;;;;;;;;;;5083550;27;20771;-74
2022/02/01 07:46:29;;;;;;;6.00;2.33;;;;;;;;;;5098267;27;20879;-73
2022/02/01 07:48:56;;;;;;;12.50;3.20;;;;;;;;;;5099092;27;20701;-74
2022/02/01 07:51:24;;;;;;;6.70;2.37;;;;;;;;;;5098434;28;20478;-74
2022/02/01 07:53:54;;;;;;;8.97;2.20;;;;;;;;;;5099620;28;20451;-75
2022/02/01 07:56:28;;;;;;;10.27;3.40;;;;;;;;;;5098407;28;20450;-74
2022/02/01 07:59:08;;;;;;;8.77;3.47;;;;;;;;;;5092364;27;20453;-74
2022/02/01 08:01:44;;;;;;;3.13;1.80;;;;;;;;;;5090133;27;20804;-74
2022/02/01 08:04:25;;;;;;;13.30;3.90;;;;;;;;;;5094326;27;20567;-74
2022/02/01 08:09:57;;;;;;;13.53;3.10;;;;;;;;;;5086091;28;20431;-75
2022/02/01 08:21:06;;;;;;;4.30;1.90;;;;;;;;;;5037501;28;21298;-73
2022/02/01 08:23:35;;;;;;;11.93;2.80;;;;;;;;;;5034995;28;20496;-74
2022/02/01 08:26:02;;;;;;;4.43;2.17;;;;;;;;;;5055051;28;20452;-74
2022/02/01 08:28:32;;;;;;;10.00;2.50;;;;;;;;;;5079042;28;20456;-74
2022/02/01 08:30:59;;;;;;;10.53;2.17;;;;;;;;;;5080384;28;21012;-74
2022/02/01 08:33:29;;;;;;;6.33;2.53;;;;;;;;;;5094483;27;20455;-74
2022/02/01 08:42:18;;;;;;;5.23;2.23;;;;;;;;;;5059515;28;20469;-73
2022/02/01 09:02:44;;;;;;;5.33;3.30;;;;;;;;;;5115388;27;20486;-73
2022/02/01 09:05:11;;;;;;;3.60;2.60;;;;;;;;;;5131364;28;20456;-74
2022/02/01 09:07:39;;;;;;;11.20;2.23;;;;;;;;;;5121440;28;20471;-74
2022/02/01 09:10:08;;;;;;;6.63;1.80;;;;;;;;;;5134370;28;20786;-74
2022/02/01 09:12:35;;;;;;;2.47;1.77;;;;;;;;;;5134018;28;20458;-74
2022/02/01 09:15:05;;;;;;;4.30;1.97;;;;;;;;;;5127836;28;20475;-74
2022/02/01 09:17:33;;;;;;;8.43;2.50;;;;;;;;;;5121202;28;20831;-74
2022/02/01 09:20:16;;;;;;;5.50;2.40;;;;;;;;;;5136419;28;20452;-74
2022/02/01 09:22:44;;;;;;;2.70;1.20;;;;;;;;;;5129808;28;20990;-74
2022/02/01 09:25:17;;;;;;;10.93;2.03;;;;;;;;;;5131593;28;20451;-74
2022/02/01 09:27:46;;;;;;;32.70;2.33;;;;;;;;;;5127910;28;20522;-74
2022/02/01 09:30:35;;;;;;;4.43;1.87;;;;;;;;;;5120704;28;20586;-73
2022/02/01 09:36:28;;;;;;;19.60;2.60;;;;;;;;;;5094200;28;20454;-74
2022/02/01 09:53:41;;;;;;;5.30;2.00;;;;;;;;;;5112002;28;20560;-74
2022/02/01 09:56:27;;;;;;;6.53;1.87;;;;;;;;;;5114092;28;20465;-74
2022/02/01 09:58:57;;;;;;;3.73;1.70;;;;;;;;;;5094855;28;20981;-73
2022/02/01 10:04:38;;;;;;;2.37;1.70;;;;;;;;;;5067199;28;20480;-74
2022/02/01 10:07:19;;;;;;;16.07;1.90;;;;;;;;;;5080249;28;20874;-73
2022/02/01 10:10:05;;;;;;;8.23;2.70;;;;;;;;;;5075279;28;20900;-74
2022/02/01 10:13:00;;;;;;;2.73;1.30;;;;;;;;;;5081428;28;20441;-73
2022/02/01 10:15:42;;;;;;;2.77;1.67;;;;;;;;;;5080250;28;20459;-74
2022/02/01 10:18:17;;;;;;;3.53;1.63;;;;;;;;;;5081115;28;20508;-73
2022/02/01 10:20:48;;;;;;;4.07;1.27;;;;;;;;;;5081651;28;20429;-75
2022/02/01 10:23:42;;;;;;;1.67;0.77;;;;;;;;;;5062862;28;20919;-75
2022/02/01 10:26:34;;;;;;;;;;;;;;;;;;;;;
2022/02/01 10:29:06;;;;;;;7.93;2.27;;;;;;;;;;5056849;28;21221;-74
2022/02/01 10:37:25;;;;;;;8.07;2.20;;;;;;;;;;5079159;28;20436;-74
2022/02/01 10:40:05;;;;;;;4.80;1.50;;;;;;;;;;5080194;28;20452;-74
2022/02/01 10:43:02;;;;;;;2.47;0.97;;;;;;;;;;5079870;28;20732;-74
2022/02/01 10:45:38;;;;;;;5.83;1.80;;;;;;;;;;5079102;28;20606;-74
2022/02/01 10:48:36;;;;;;;3.47;1.00;;;;;;;;;;5059135;28;20444;-74
2022/02/01 10:51:30;;;;;;;4.37;1.80;;;;;;;;;;5079691;28;20538;-73
2022/02/01 10:54:06;;;;;;;7.23;1.43;;;;;;;;;;5078177;28;20456;-74
2022/02/01 10:59:47;;;;;;;2.30;1.33;;;;;;;;;;5062447;28;20454;-75
2022/02/01 11:02:42;;;;;;;6.23;2.33;;;;;;;;;;5034331;28;20449;-73
2022/02/01 11:08:11;;;;;;;2.40;1.20;;;;;;;;;;5053989;28;20941;-73
2022/02/01 11:11:12;;;;;;;4.67;1.33;;;;;;;;;;5067290;28;20568;-73
2022/02/01 11:16:46;;;;;;;3.10;1.10;;;;;;;;;;5064501;28;20881;-72
2022/02/01 11:19:47;;;;;;;5.60;2.60;;;;;;;;;;5060709;28;21145;-73
2022/02/01 11:22:29;;;;;;;2.17;1.70;;;;;;;;;;5078073;28;20493;-73
2022/02/01 11:25:01;;;;;;;2.70;1.20;;;;;;;;;;5077849;28;20475;-73
2022/02/01 11:27:40;;;;;;;4.50;2.43;;;;;;;;;;5076430;28;20934;-73
2022/02/01 11:30:13;;;;;;;2.83;1.03;;;;;;;;;;5076961;28;20540;-74
2022/02/01 11:32:51;;;;;;;3.23;1.53;;;;;;;;;;5056978;28;20489;-73
2022/02/01 11:35:27;;;;;;;5.90;1.37;;;;;;;;;;5057261;28;20450;-73
2022/02/01 11:37:58;;;;;;;1.70;1.13;;;;;;;;;;5056018;28;20465;-73
2022/02/01 11:40:29;;;;;;;2.67;1.63;;;;;;;;;;5055499;28;20449;-74
2022/02/01 11:43:01;;;;;;;3.03;1.30;;;;;;;;;;5055109;28;20441;-73
2022/02/01 11:45:37;;;;;;;2.30;1.47;;;;;;;;;;5071468;28;20557;-73
2022/02/01 11:48:16;;;;;;;6.80;2.00;;;;;;;;;;5074168;28;20456;-72
2022/02/01 11:50:52;;;;;;;3.03;1.13;;;;;;;;;;5074605;28;20518;-73
2022/02/01 11:53:29;;;;;;;1.93;0.90;;;;;;;;;;5074363;28;20460;-73
2022/02/01 11:55:59;;;;;;;1.57;1.07;;;;;;;;;;5074994;28;20460;-73
2022/02/01 11:58:32;;;;;;;4.93;2.47;;;;;;;;;;5071820;28;20450;-73
2022/02/01 12:01:00;;;;;;;2.93;1.57;;;;;;;;;;5065139;28;20574;-73
2022/02/01 12:03:31;;;;;;;3.00;1.67;;;;;;;;;;5075453;28;20448;-72
2022/02/01 12:06:06;;;;;;;2.33;1.23;;;;;;;;;;5074639;28;20555;-74
2022/02/01 12:08:37;;;;;;;2.53;1.70;;;;;;;;;;5080789;28;20444;-74
2022/02/01 12:11:09;;;;;;;1.90;1.37;;;;;;;;;;5074269;28;20743;-73
2022/02/01 12:13:37;;;;;;;2.30;0.87;;;;;;;;;;5075201;28;20488;-73
2022/02/01 12:16:11;;;;;;;2.33;1.97;;;;;;;;;;5076735;28;20544;-72
2022/02/01 12:18:53;;;;;;;3.57;1.50;;;;;;;;;;5074106;28;20798;-72
2022/02/01 12:21:37;;;;;;;2.57;1.43;;;;;;;;;;5071489;28;20509;-73
2022/02/01 12:24:10;;;;;;;1.60;1.20;;;;;;;;;;5072035;28;20448;-72
2022/02/01 12:26:38;;;;;;;1.90;1.53;;;;;;;;;;5074456;28;20900;-73
2022/02/01 12:29:09;;;;;;;2.30;1.40;;;;;;;;;;5075787;28;20547;-72
2022/02/01 12:31:38;;;;;;;2.20;1.10;;;;;;;;;;5075111;28;20515;-72
2022/02/01 12:34:07;;;;;;;1.40;0.80;;;;;;;;;;5071308;28;21454;-73
2022/02/01 12:36:39;;;;;;;2.17;1.60;;;;;;;;;;5058764;28;20453;-72
2022/02/01 12:39:13;;;;;;;6.13;1.90;;;;;;;;;;5068890;28;20461;-74
2022/02/01 12:41:44;;;;;;;2.53;2.03;;;;;;;;;;5073341;28;20451;-74
2022/02/01 12:47:12;;;;;;;1.27;1.00;;;;;;;;;;5075767;28;20444;-74
2022/02/01 12:49:45;;;;;;;2.57;1.70;;;;;;;;;;5073623;28;20449;-73
2022/02/01 12:52:25;;;;;;;2.37;1.40;;;;;;;;;;5096058;28;20483;-73
2022/02/01 12:55:01;;;;;;;2.07;1.53;;;;;;;;;;5077185;28;20447;-73
2022/02/01 12:57:37;;;;;;;5.13;1.10;;;;;;;;;;5068033;28;20458;-73
2022/02/01 13:00:26;;;;;;;1.90;1.33;;;;;;;;;;5075171;28;20456;-72
2022/02/01 13:02:59;;;;;;;1.80;1.20;;;;;;;;;;5074192;28;20479;-72
2022/02/01 13:05:38;;;;;;;1.50;0.80;;;;;;;;;;5067297;28;20445;-72
2022/02/01 13:08:37;;;;;;;2.37;1.03;;;;;;;;;;5054813;28;21042;-74
2022/02/01 13:16:59;;;;;;;1.40;0.90;;;;;;;;;;5054323;28;21013;-72
2022/02/01 13:22:28;;;;;;;2.83;1.60;;;;;;;;;;5071193;28;20451;-72
2022/02/01 13:25:28;;;;;;;2.27;1.50;;;;;;;;;;5057494;28;20898;-73
2022/02/01 13:28:00;;;;;;;2.00;1.10;;;;;;;;;;5067663;28;20456;-73
2022/02/01 13:30:43;;;;;;;2.40;1.50;;;;;;;;;;5075494;28;20550;-74
2022/02/01 13:33:58;;;;;;;2.53;1.43;;;;;;;;;;5068378;28;20480;-74
2022/02/01 13:42:52;;;;;;;2.20;1.53;;;;;;;;;;5075222;28;20429;-74
2022/02/01 13:45:41;;;;;;;1.97;1.10;;;;;;;;;;5078691;28;21123;-73
2022/02/01 13:48:15;;;;;;;2.83;1.63;;;;;;;;;;5078199;28;20475;-74
2022/02/01 13:53:14;;;;;;;4.03;1.73;;;;;;;;;;5076204;28;20638;-73
2022/02/01 13:55:44;;;;;;;3.20;1.10;;;;;;;;;;5070139;28;20488;-74
2022/02/01 13:58:13;;;;;;;2.90;1.90;;;;;;;;;;5058570;28;20469;-74
2022/02/01 14:00:41;;;;;;;2.37;1.30;;;;;;;;;;5072580;28;20452;-74
2022/02/01 14:03:20;;;;;;;3.30;1.50;;;;;;;;;;5074961;28;20937;-74
2022/02/01 14:06:07;;;;;;;2.47;1.33;;;;;;;;;;5059573;28;20476;-72
2022/02/01 14:08:48;;;;;;;6.67;2.10;;;;;;;;;;5092721;28;20505;-73
2022/02/01 14:23:03;;;;;;;3.40;2.20;;;;;;;;;;5082981;28;20427;-73
2022/02/01 14:28:23;;;;;;;3.70;2.53;;;;;;;;;;5083343;28;20544;-74
2022/02/01 14:33:59;;;;;;;3.70;1.90;;;;;;;;;;5067119;28;20460;-73
2022/02/01 14:36:33;;;;;;;4.60;1.87;;;;;;;;;;5088296;28;20447;-73
2022/02/01 14:42:55;;;;;;;4.70;2.90;;;;;;;;;;5082690;28;20460;-73
2022/02/01 14:45:28;;;;;;;8.40;2.70;;;;;;;;;;5018040;28;20531;-73
2022/02/01 14:47:57;;;;;;;7.40;2.27;;;;;;;;;;5014286;28;20459;-73
2022/02/01 14:53:35;;;;;;;3.23;1.43;;;;;;;;;;5077986;28;20798;-73
2022/02/01 14:56:20;;;;;;;4.87;1.90;;;;;;;;;;5071317;28;20453;-73
2022/02/01 15:04:57;;;;;;;10.93;2.43;;;;;;;;;;5066869;28;20472;-73
2022/02/01 15:07:36;;;;;;;5.40;1.33;;;;;;;;;;5068537;28;20479;-72
2022/02/01 15:12:57;;;;;;;7.80;1.70;;;;;;;;;;5071383;28;20476;-73
2022/02/01 15:15:26;;;;;;;6.77;1.97;;;;;;;;;;5081379;28;20555;-73
2022/02/01 15:18:05;;;;;;;4.93;1.60;;;;;;;;;;5071633;28;20469;-72
2022/02/01 15:20:34;;;;;;;4.03;1.23;;;;;;;;;;5060419;28;20547;-73
2022/02/01 15:23:09;;;;;;;8.40;2.10;;;;;;;;;;5058100;28;20882;-73
2022/02/01 15:25:47;;;;;;;8.93;1.60;;;;;;;;;;5066074;28;20464;-73
2022/02/01 15:28:19;;;;;;;6.10;1.93;;;;;;;;;;5076070;28;20464;-71
2022/02/01 15:30:54;;;;;;;7.40;2.00;;;;;;;;;;5072649;28;20474;-72
2022/02/01 15:33:28;;;;;;;4.57;1.63;;;;;;;;;;5066907;28;20485;-72
2022/02/01 15:36:03;;;;;;;7.97;1.50;;;;;;;;;;5076027;28;20457;-72
2022/02/01 15:38:41;;;;;;;5.17;1.43;;;;;;;;;;5071034;28;20803;-74
2022/02/01 15:58:09;;;;;;;5.50;1.33;;;;;;;;;;5001478;28;20462;-73
2022/02/01 16:00:39;;;;;;;5.07;1.37;;;;;;;;;;5075469;28;20889;-73
2022/02/01 16:03:11;;;;;;;4.03;2.07;;;;;;;;;;5075607;28;20559;-72
2022/02/01 16:05:42;;;;;;;6.97;3.10;;;;;;;;;;5076626;28;20902;-74
2022/02/01 16:08:20;;;;;;;8.50;2.10;;;;;;;;;;5075710;28;20456;-73
2022/02/01 16:10:58;;;;;;;6.97;1.30;;;;;;;;;;5075045;28;20463;-73
2022/02/01 16:13:37;;;;;;;9.30;2.20;;;;;;;;;;5053546;28;20497;-72
2022/02/01 16:16:09;;;;;;;11.07;1.93;;;;;;;;;;5074416;28;20460;-71
2022/02/01 16:18:40;;;;;;;7.60;2.10;;;;;;;;;;5076055;28;20457;-73
2022/02/01 16:21:11;;;;;;;8.93;3.00;;;;;;;;;;5075485;28;20534;-72
2022/02/01 16:23:43;;;;;;;12.57;1.60;;;;;;;;;;5073551;28;20456;-72
2022/02/01 16:26:14;;;;;;;6.50;1.87;;;;;;;;;;5059685;28;20984;-73
2022/02/01 16:28:54;;;;;;;10.67;2.60;;;;;;;;;;5066003;28;20458;-72
2022/02/01 16:31:45;;;;;;;19.07;3.20;;;;;;;;;;5072710;28;20472;-71
2022/02/01 16:34:25;;;;;;;13.00;2.87;;;;;;;;;;5062895;28;20481;-73
2022/02/01 16:37:24;;;;;;;;;;;;;;;;;;;;;
2022/02/01 16:39:53;;;;;;;11.87;1.53;;;;;;;;;;5064176;28;20449;-71
2022/02/01 16:42:22;;;;;;;9.57;2.77;;;;;;;;;;5072665;28;20479;-72
2022/02/01 16:44:52;;;;;;;10.00;2.20;;;;;;;;;;5071301;28;20449;-73
2022/02/01 16:47:20;;;;;;;9.20;4.17;;;;;;;;;;5067203;28;20452;-71
2022/02/01 16:49:52;;;;;;;5.70;2.83;;;;;;;;;;5074991;28;20444;-73
2022/02/01 16:52:27;;;;;;;4.97;2.40;;;;;;;;;;5075387;28;20476;-72
2022/02/01 16:55:03;;;;;;;6.20;1.90;;;;;;;;;;5073514;28;20456;-72
2022/02/01 16:57:38;;;;;;;7.67;2.30;;;;;;;;;;5075683;28;20463;-73
2022/02/01 17:00:13;;;;;;;2.90;1.40;;;;;;;;;;5074815;28;21130;-72
2022/02/01 17:02:42;;;;;;;7.87;1.73;;;;;;;;;;5074496;28;20464;-73
2022/02/01 17:05:10;;;;;;;12.33;3.23;;;;;;;;;;5073424;28;21009;-72
2022/02/01 17:07:42;;;;;;;7.57;1.67;;;;;;;;;;5074434;28;20452;-71
2022/02/01 17:10:20;;;;;;;14.20;3.20;;;;;;;;;;5075272;28;20465;-72
2022/02/01 17:12:53;;;;;;;15.83;5.63;;;;;;;;;;5074556;28;20570;-73
2022/02/01 17:15:41;;;;;;;5.20;1.97;;;;;;;;;;5079126;28;20467;-73
2022/02/01 17:18:37;;;;;;;9.90;2.53;;;;;;;;;;5078585;28;20506;-73
2022/02/01 17:21:27;;;;;;;4.30;2.20;;;;;;;;;;5067471;28;20572;-73
2022/02/01 17:23:56;;;;;;;5.40;2.07;;;;;;;;;;5063142;28;20456;-73
2022/02/01 17:26:35;;;;;;;6.23;1.83;;;;;;;;;;5070107;28;20919;-73
2022/02/01 17:29:04;;;;;;;10.03;1.70;;;;;;;;;;5064599;28;20453;-73
2022/02/01 17:31:33;;;;;;;3.93;1.17;;;;;;;;;;5067418;28;20892;-74
2022/02/01 17:34:01;;;;;;;11.13;2.80;;;;;;;;;;5071860;28;20914;-73
2022/02/01 17:36:29;;;;;;;7.57;2.57;;;;;;;;;;5079980;28;20460;-72
2022/02/01 17:38:58;;;;;;;9.70;2.47;;;;;;;;;;5077820;28;20480;-73
2022/02/01 17:41:26;;;;;;;6.83;2.10;;;;;;;;;;5077352;28;20851;-73
2022/02/01 17:43:57;;;;;;;11.13;2.67;;;;;;;;;;5073628;28;20454;-73
2022/02/01 17:46:40;;;;;;;14.83;4.13;;;;;;;;;;5076831;28;20467;-73
2022/02/01 17:52:14;;;;;;;15.13;3.43;;;;;;;;;;5067020;28;20889;-73
2022/02/01 17:54:52;;;;;;;18.30;4.30;;;;;;;;;;5078538;28;20455;-74
2022/02/01 17:57:41;;;;;;;12.47;2.90;;;;;;;;;;5075946;28;20455;-73
2022/02/01 18:00:37;;;;;;;17.87;4.20;;;;;;;;;;5078187;28;20440;-73
2022/02/01 18:06:28;;;;;;;9.90;3.03;;;;;;;;;;4968969;28;20476;-73
2022/02/01 18:09:22;;;;;;;20.60;4.30;;;;;;;;;;4975860;28;20484;-72
2022/02/01 18:17:17;;;;;;;11.50;2.83;;;;;;;;;;5076802;28;20455;-73
2022/02/01 18:19:49;;;;;;;9.10;2.80;;;;;;;;;;5077612;28;20491;-71
2022/02/01 18:22:22;;;;;;;12.17;2.30;;;;;;;;;;5077217;28;20472;-70
2022/02/01 18:25:03;;;;;;;15.43;5.93;;;;;;;;;;5078681;28;20484;-72
2022/02/01 18:27:33;;;;;;;17.47;4.73;;;;;;;;;;5077848;28;20465;-71
2022/02/01 18:30:18;;;;;;;17.13;7.70;;;;;;;;;;5078826;28;20448;-71
2022/02/01 18:33:03;;;;;;;21.67;4.27;;;;;;;;;;5078684;28;20546;-72
2022/02/01 18:38:40;;;;;;;9.93;2.93;;;;;;;;;;5053570;28;20712;-71
2022/02/01 18:41:14;;;;;;;18.30;5.30;;;;;;;;;;5076938;28;20455;-71
2022/02/01 18:43:43;;;;;;;21.47;4.73;;;;;;;;;;5078537;28;20457;-72
2022/02/01 18:46:19;;;;;;;23.30;4.70;;;;;;;;;;5078329;28;20832;-72
2022/02/01 18:52:09;;;;;;;11.77;3.10;;;;;;;;;;5075246;28;20451;-73
2022/02/01 18:54:54;;;;;;;17.30;4.30;;;;;;;;;;5076924;28;20557;-72
2022/02/01 18:57:28;;;;;;;25.10;6.77;;;;;;;;;;5077477;28;20800;-72